sensor_id;sensor_type;location;lat;lon;timestamp;temperature;humidity
8463;DHT22;4268;52.506;13.462;2022-11-20T00:01:15;1.40;99.90
8463;DHT22;4268;52.506;13.462;2022-11-20T00:03:41;1.40;99.90
8463;DHT22;4268;52.506;13.462;2022-11-20T00:06:09;1.40;99.90
8463;DHT22;4268;52.506;13.462;2022-11-20T00:08:36;1.40;99.90
8463;DHT22;4268;52.506;13.462;2022-11-20T00:11:06;1.40;99.90
8463;DHT22;4268;52.506;13.462;2022-11-20T00:13:32;1.40;99.90
8463;DHT22;4268;52.506;13.462;2022-11-20T00:15:59;1.40;99.90
8463;DHT22;4268;52.506;13.462;2022-11-20T00:18:26;1.40;99.90
8463;DHT22;4268;52.506;13.462;2022-11-20T00:20:51;1.40;99.90
8463;DHT22;4268;52.506;13.462;2022-11-20T00:23:17;1.40;99.90
8463;DHT22;4268;52.506;13.462;2022-11-20T00:25:42;1.40;99.90
8463;DHT22;4268;52.506;13.462;2022-11-20T00:28:08;1.40;99.90
8463;DHT22;4268;52.506;13.462;2022-11-20T00:30:33;1.40;99.90
8463;DHT22;4268;52.506;13.462;2022-11-20T00:32:59;1.40;99.90
8463;DHT22;4268;52.506;13.462;2022-11-20T00:35:24;1.40;99.90
8463;DHT22;4268;52.506;13.462;2022-11-20T00:37:50;1.40;99.90
8463;DHT22;4268;52.506;13.462;2022-11-20T00:40:15;1.40;99.90
8463;DHT22;4268;52.506;13.462;2022-11-20T00:42:40;1.40;99.90
8463;DHT22;4268;52.506;13.462;2022-11-20T00:45:06;1.40;99.90
8463;DHT22;4268;52.506;13.462;2022-11-20T00:47:32;1.40;99.90
8463;DHT22;4268;52.506;13.462;2022-11-20T00:49:57;1.30;99.90
8463;DHT22;4268;52.506;13.462;2022-11-20T00:52:23;1.30;99.90
8463;DHT22;4268;52.506;13.462;2022-11-20T00:54:48;1.30;99.90
8463;DHT22;4268;52.506;13.462;2022-11-20T00:57:14;1.30;99.90
8463;DHT22;4268;52.506;13.462;2022-11-20T00:59:39;1.30;99.90
8463;DHT22;4268;52.506;13.462;2022-11-20T01:02:05;1.30;99.90
8463;DHT22;4268;52.506;13.462;2022-11-20T01:04:30;1.30;99.90
8463;DHT22;4268;52.506;13.462;2022-11-20T01:06:55;1.30;99.90
8463;DHT22;4268;52.506;13.462;2022-11-20T01:09:21;1.30;99.90
8463;DHT22;4268;52.506;13.462;2022-11-20T01:11:46;1.30;99.90
8463;DHT22;4268;52.506;13.462;2022-11-20T01:14:15;1.30;99.90
8463;DHT22;4268;52.506;13.462;2022-11-20T01:16:43;1.30;99.90
8463;DHT22;4268;52.506;13.462;2022-11-20T01:19:14;1.30;99.90
8463;DHT22;4268;52.506;13.462;2022-11-20T01:21:41;1.30;99.90
8463;DHT22;4268;52.506;13.462;2022-11-20T01:24:10;1.30;99.90
8463;DHT22;4268;52.506;13.462;2022-11-20T01:26:38;1.30;99.90
8463;DHT22;4268;52.506;13.462;2022-11-20T01:29:05;1.30;99.90
8463;DHT22;4268;52.506;13.462;2022-11-20T01:31:34;1.40;99.90
8463;DHT22;4268;52.506;13.462;2022-11-20T01:34:03;1.30;99.90
8463;DHT22;4268;52.506;13.462;2022-11-20T01:36:30;1.30;99.90
8463;DHT22;4268;52.506;13.462;2022-11-20T01:38:58;1.30;99.90
8463;DHT22;4268;52.506;13.462;2022-11-20T01:41:25;1.30;99.90
8463;DHT22;4268;52.506;13.462;2022-11-20T01:44:12;1.30;99.90
8463;DHT22;4268;52.506;13.462;2022-11-20T01:46:42;1.30;99.90
8463;DHT22;4268;52.506;13.462;2022-11-20T01:49:17;1.40;99.90
8463;DHT22;4268;52.506;13.462;2022-11-20T01:51:52;1.40;99.90
8463;DHT22;4268;52.506;13.462;2022-11-20T01:54:40;1.40;99.90
8463;DHT22;4268;52.506;13.462;2022-11-20T01:57:10;1.30;99.90
8463;DHT22;4268;52.506;13.462;2022-11-20T01:59:40;1.40;99.90
8463;DHT22;4268;52.506;13.462;2022-11-20T02:02:08;1.30;99.90
8463;DHT22;4268;52.506;13.462;2022-11-20T02:04:33;1.30;99.90
8463;DHT22;4268;52.506;13.462;2022-11-20T02:07:00;1.30;99.90
8463;DHT22;4268;52.506;13.462;2022-11-20T02:09:27;1.30;99.90
8463;DHT22;4268;52.506;13.462;2022-11-20T02:11:53;1.30;99.90
8463;DHT22;4268;52.506;13.462;2022-11-20T02:14:19;1.30;99.90
8463;DHT22;4268;52.506;13.462;2022-11-20T02:16:47;1.30;99.90
8463;DHT22;4268;52.506;13.462;2022-11-20T02:19:29;1.30;99.90
8463;DHT22;4268;52.506;13.462;2022-11-20T02:22:20;1.30;99.90
8463;DHT22;4268;52.506;13.462;2022-11-20T02:24:48;1.30;99.90
8463;DHT22;4268;52.506;13.462;2022-11-20T02:27:15;1.20;99.90
8463;DHT22;4268;52.506;13.462;2022-11-20T02:29:55;1.30;99.90
8463;DHT22;4268;52.506;13.462;2022-11-20T02:32:26;1.20;99.90
8463;DHT22;4268;52.506;13.462;2022-11-20T02:34:52;1.20;99.90
8463;DHT22;4268;52.506;13.462;2022-11-20T02:37:18;1.20;99.90
8463;DHT22;4268;52.506;13.462;2022-11-20T02:39:46;1.20;99.90
8463;DHT22;4268;52.506;13.462;2022-11-20T02:42:12;1.20;99.90
8463;DHT22;4268;52.506;13.462;2022-11-20T02:44:38;1.20;99.90
8463;DHT22;4268;52.506;13.462;2022-11-20T02:47:03;1.20;99.90
8463;DHT22;4268;52.506;13.462;2022-11-20T02:49:29;1.10;99.90
8463;DHT22;4268;52.506;13.462;2022-11-20T02:51:54;1.10;99.90
8463;DHT22;4268;52.506;13.462;2022-11-20T02:54:20;1.10;99.90
8463;DHT22;4268;52.506;13.462;2022-11-20T02:56:45;1.10;99.90
8463;DHT22;4268;52.506;13.462;2022-11-20T02:59:11;1.10;99.90
8463;DHT22;4268;52.506;13.462;2022-11-20T03:01:36;1.10;99.90
8463;DHT22;4268;52.506;13.462;2022-11-20T03:04:02;1.10;99.90
8463;DHT22;4268;52.506;13.462;2022-11-20T03:06:27;1.30;99.90
8463;DHT22;4268;52.506;13.462;2022-11-20T03:08:53;1.10;99.90
8463;DHT22;4268;52.506;13.462;2022-11-20T03:11:18;1.10;99.90
8463;DHT22;4268;52.506;13.462;2022-11-20T03:13:44;1.10;99.90
8463;DHT22;4268;52.506;13.462;2022-11-20T03:16:18;1.10;99.90
8463;DHT22;4268;52.506;13.462;2022-11-20T03:18:44;1.10;99.90
8463;DHT22;4268;52.506;13.462;2022-11-20T03:21:11;1.10;99.90
8463;DHT22;4268;52.506;13.462;2022-11-20T03:23:37;1.10;99.90
8463;DHT22;4268;52.506;13.462;2022-11-20T03:28:40;1.00;99.90
8463;DHT22;4268;52.506;13.462;2022-11-20T03:31:12;1.00;99.90
8463;DHT22;4268;52.506;13.462;2022-11-20T03:33:38;1.00;99.90
8463;DHT22;4268;52.506;13.462;2022-11-20T03:36:06;1.00;99.90
8463;DHT22;4268;52.506;13.462;2022-11-20T03:38:32;1.00;99.90
8463;DHT22;4268;52.506;13.462;2022-11-20T03:41:05;1.00;99.90
8463;DHT22;4268;52.506;13.462;2022-11-20T03:43:32;1.10;99.90
8463;DHT22;4268;52.506;13.462;2022-11-20T03:45:58;1.00;99.90
8463;DHT22;4268;52.506;13.462;2022-11-20T03:48:24;1.00;99.90
8463;DHT22;4268;52.506;13.462;2022-11-20T03:50:50;1.00;99.90
8463;DHT22;4268;52.506;13.462;2022-11-20T03:53:16;1.00;99.90
8463;DHT22;4268;52.506;13.462;2022-11-20T03:55:42;1.20;99.90
8463;DHT22;4268;52.506;13.462;2022-11-20T03:58:09;1.00;99.90
8463;DHT22;4268;52.506;13.462;2022-11-20T04:00:35;1.00;99.90
8463;DHT22;4268;52.506;13.462;2022-11-20T04:03:01;1.00;99.90
8463;DHT22;4268;52.506;13.462;2022-11-20T04:05:27;1.00;99.90
8463;DHT22;4268;52.506;13.462;2022-11-20T04:07:52;1.00;99.90
8463;DHT22;4268;52.506;13.462;2022-11-20T04:10:18;1.10;99.90
8463;DHT22;4268;52.506;13.462;2022-11-20T04:12:43;1.00;99.90
8463;DHT22;4268;52.506;13.462;2022-11-20T04:15:09;1.00;99.90
8463;DHT22;4268;52.506;13.462;2022-11-20T04:17:35;1.00;99.90
8463;DHT22;4268;52.506;13.462;2022-11-20T04:20:01;1.00;99.90
8463;DHT22;4268;52.506;13.462;2022-11-20T04:22:26;1.00;99.90
8463;DHT22;4268;52.506;13.462;2022-11-20T04:24:52;1.00;99.90
8463;DHT22;4268;52.506;13.462;2022-11-20T04:27:17;0.90;99.90
8463;DHT22;4268;52.506;13.462;2022-11-20T04:29:43;0.90;99.90
8463;DHT22;4268;52.506;13.462;2022-11-20T04:32:08;0.80;99.90
8463;DHT22;4268;52.506;13.462;2022-11-20T04:34:34;0.80;99.90
8463;DHT22;4268;52.506;13.462;2022-11-20T04:37:00;0.80;99.90
8463;DHT22;4268;52.506;13.462;2022-11-20T04:39:25;0.80;99.90
8463;DHT22;4268;52.506;13.462;2022-11-20T04:41:51;0.80;99.90
8463;DHT22;4268;52.506;13.462;2022-11-20T04:44:36;0.80;99.90
8463;DHT22;4268;52.506;13.462;2022-11-20T04:47:02;0.80;99.90
8463;DHT22;4268;52.506;13.462;2022-11-20T04:49:27;0.80;99.90
8463;DHT22;4268;52.506;13.462;2022-11-20T04:51:53;0.70;99.90
8463;DHT22;4268;52.506;13.462;2022-11-20T04:54:19;0.70;99.90
8463;DHT22;4268;52.506;13.462;2022-11-20T04:56:47;0.70;99.90
8463;DHT22;4268;52.506;13.462;2022-11-20T04:59:13;0.70;99.90
8463;DHT22;4268;52.506;13.462;2022-11-20T05:01:38;0.70;99.90
8463;DHT22;4268;52.506;13.462;2022-11-20T05:04:04;0.70;99.90
8463;DHT22;4268;52.506;13.462;2022-11-20T05:06:30;0.70;99.90
8463;DHT22;4268;52.506;13.462;2022-11-20T05:08:56;0.70;99.90
8463;DHT22;4268;52.506;13.462;2022-11-20T05:11:21;0.70;99.90
8463;DHT22;4268;52.506;13.462;2022-11-20T05:13:47;0.80;99.90
8463;DHT22;4268;52.506;13.462;2022-11-20T05:16:18;0.70;99.90
8463;DHT22;4268;52.506;13.462;2022-11-20T05:18:45;0.70;99.90
8463;DHT22;4268;52.506;13.462;2022-11-20T05:21:11;0.70;99.90
8463;DHT22;4268;52.506;13.462;2022-11-20T05:23:37;0.70;99.90
8463;DHT22;4268;52.506;13.462;2022-11-20T05:26:05;0.70;99.90
8463;DHT22;4268;52.506;13.462;2022-11-20T05:28:31;0.70;99.90
8463;DHT22;4268;52.506;13.462;2022-11-20T05:31:05;0.80;99.90
8463;DHT22;4268;52.506;13.462;2022-11-20T05:33:31;0.80;99.90
8463;DHT22;4268;52.506;13.462;2022-11-20T05:36:00;0.80;99.90
8463;DHT22;4268;52.506;13.462;2022-11-20T05:38:25;0.80;99.90
8463;DHT22;4268;52.506;13.462;2022-11-20T05:40:51;0.80;99.90
8463;DHT22;4268;52.506;13.462;2022-11-20T05:43:16;0.80;99.90
8463;DHT22;4268;52.506;13.462;2022-11-20T05:45:42;0.80;99.90
8463;DHT22;4268;52.506;13.462;2022-11-20T05:48:07;0.90;99.90
8463;DHT22;4268;52.506;13.462;2022-11-20T05:50:33;0.80;99.90
8463;DHT22;4268;52.506;13.462;2022-11-20T05:52:59;0.90;99.90
8463;DHT22;4268;52.506;13.462;2022-11-20T05:55:25;0.90;99.90
8463;DHT22;4268;52.506;13.462;2022-11-20T05:57:54;0.90;99.90
8463;DHT22;4268;52.506;13.462;2022-11-20T06:00:20;0.90;99.90
8463;DHT22;4268;52.506;13.462;2022-11-20T06:02:45;0.90;99.90
8463;DHT22;4268;52.506;13.462;2022-11-20T06:05:11;0.90;99.90
8463;DHT22;4268;52.506;13.462;2022-11-20T06:07:36;0.90;99.90
8463;DHT22;4268;52.506;13.462;2022-11-20T06:10:02;0.90;99.90
8463;DHT22;4268;52.506;13.462;2022-11-20T06:12:28;0.90;99.90
8463;DHT22;4268;52.506;13.462;2022-11-20T06:14:53;0.90;99.90
8463;DHT22;4268;52.506;13.462;2022-11-20T06:17:19;0.90;99.90
8463;DHT22;4268;52.506;13.462;2022-11-20T06:19:44;0.90;99.90
8463;DHT22;4268;52.506;13.462;2022-11-20T06:22:09;0.90;99.90
8463;DHT22;4268;52.506;13.462;2022-11-20T06:24:35;0.90;99.90
8463;DHT22;4268;52.506;13.462;2022-11-20T06:27:00;0.90;99.90
8463;DHT22;4268;52.506;13.462;2022-11-20T06:29:26;0.90;99.90
8463;DHT22;4268;52.506;13.462;2022-11-20T06:31:51;0.90;99.90
8463;DHT22;4268;52.506;13.462;2022-11-20T06:34:17;0.90;99.90
8463;DHT22;4268;52.506;13.462;2022-11-20T06:36:42;0.90;99.90
8463;DHT22;4268;52.506;13.462;2022-11-20T06:39:08;0.80;99.90
8463;DHT22;4268;52.506;13.462;2022-11-20T06:41:33;0.80;99.90
8463;DHT22;4268;52.506;13.462;2022-11-20T06:43:59;0.80;99.90
8463;DHT22;4268;52.506;13.462;2022-11-20T06:46:24;0.90;99.90
8463;DHT22;4268;52.506;13.462;2022-11-20T06:48:50;0.90;99.90
8463;DHT22;4268;52.506;13.462;2022-11-20T06:51:16;1.00;99.90
8463;DHT22;4268;52.506;13.462;2022-11-20T06:56:14;0.90;99.90
8463;DHT22;4268;52.506;13.462;2022-11-20T06:58:39;1.00;99.90
8463;DHT22;4268;52.506;13.462;2022-11-20T07:01:13;1.00;99.90
8463;DHT22;4268;52.506;13.462;2022-11-20T07:03:40;0.90;99.90
8463;DHT22;4268;52.506;13.462;2022-11-20T07:06:05;1.20;99.90
8463;DHT22;4268;52.506;13.462;2022-11-20T07:08:32;1.00;99.90
8463;DHT22;4268;52.506;13.462;2022-11-20T07:11:03;1.00;99.90
8463;DHT22;4268;52.506;13.462;2022-11-20T07:13:30;0.90;99.90
8463;DHT22;4268;52.506;13.462;2022-11-20T07:16:00;2.00;99.90
8463;DHT22;4268;52.506;13.462;2022-11-20T07:18:26;1.00;99.90
8463;DHT22;4268;52.506;13.462;2022-11-20T07:20:51;1.10;99.90
8463;DHT22;4268;52.506;13.462;2022-11-20T07:23:17;1.00;99.90
8463;DHT22;4268;52.506;13.462;2022-11-20T07:25:42;1.10;99.90
8463;DHT22;4268;52.506;13.462;2022-11-20T07:28:08;1.10;99.90
8463;DHT22;4268;52.506;13.462;2022-11-20T07:30:35;1.10;99.90
8463;DHT22;4268;52.506;13.462;2022-11-20T07:33:01;1.00;99.90
8463;DHT22;4268;52.506;13.462;2022-11-20T07:35:26;1.00;99.90
8463;DHT22;4268;52.506;13.462;2022-11-20T07:37:52;1.10;99.90
8463;DHT22;4268;52.506;13.462;2022-11-20T07:40:18;1.00;99.90
8463;DHT22;4268;52.506;13.462;2022-11-20T07:42:54;1.10;99.90
8463;DHT22;4268;52.506;13.462;2022-11-20T07:45:22;1.00;99.90
8463;DHT22;4268;52.506;13.462;2022-11-20T07:47:48;1.00;99.90
8463;DHT22;4268;52.506;13.462;2022-11-20T07:50:13;0.90;99.90
8463;DHT22;4268;52.506;13.462;2022-11-20T07:52:39;1.00;99.90
8463;DHT22;4268;52.506;13.462;2022-11-20T07:55:06;1.00;99.90
8463;DHT22;4268;52.506;13.462;2022-11-20T07:57:32;1.10;99.90
8463;DHT22;4268;52.506;13.462;2022-11-20T07:59:57;1.00;99.90
8463;DHT22;4268;52.506;13.462;2022-11-20T08:02:23;1.10;99.90
8463;DHT22;4268;52.506;13.462;2022-11-20T08:04:48;1.10;99.90
8463;DHT22;4268;52.506;13.462;2022-11-20T08:07:14;1.10;99.90
8463;DHT22;4268;52.506;13.462;2022-11-20T08:09:39;1.10;99.90
8463;DHT22;4268;52.506;13.462;2022-11-20T08:12:05;1.10;99.90
8463;DHT22;4268;52.506;13.462;2022-11-20T08:14:49;1.10;99.90
8463;DHT22;4268;52.506;13.462;2022-11-20T08:17:14;1.10;99.90
8463;DHT22;4268;52.506;13.462;2022-11-20T08:19:40;1.20;99.90
8463;DHT22;4268;52.506;13.462;2022-11-20T08:22:05;1.20;99.90
8463;DHT22;4268;52.506;13.462;2022-11-20T08:24:31;0.90;99.90
8463;DHT22;4268;52.506;13.462;2022-11-20T08:27:00;1.20;99.90
8463;DHT22;4268;52.506;13.462;2022-11-20T08:29:28;1.20;99.90
8463;DHT22;4268;52.506;13.462;2022-11-20T08:31:54;1.30;99.90
8463;DHT22;4268;52.506;13.462;2022-11-20T08:34:19;1.40;99.90
8463;DHT22;4268;52.506;13.462;2022-11-20T08:36:45;1.40;99.90
8463;DHT22;4268;52.506;13.462;2022-11-20T08:39:13;1.40;99.90
8463;DHT22;4268;52.506;13.462;2022-11-20T08:41:39;1.40;99.90
8463;DHT22;4268;52.506;13.462;2022-11-20T08:44:07;1.40;99.90
8463;DHT22;4268;52.506;13.462;2022-11-20T08:46:38;1.40;99.90
8463;DHT22;4268;52.506;13.462;2022-11-20T08:49:05;1.40;99.90
8463;DHT22;4268;52.506;13.462;2022-11-20T08:51:31;1.30;99.90
8463;DHT22;4268;52.506;13.462;2022-11-20T08:53:57;1.40;99.90
8463;DHT22;4268;52.506;13.462;2022-11-20T08:56:22;1.40;99.90
8463;DHT22;4268;52.506;13.462;2022-11-20T08:58:50;1.40;99.90
8463;DHT22;4268;52.506;13.462;2022-11-20T09:01:16;1.50;99.90
8463;DHT22;4268;52.506;13.462;2022-11-20T09:03:42;1.50;99.90
8463;DHT22;4268;52.506;13.462;2022-11-20T09:06:07;1.50;99.90
8463;DHT22;4268;52.506;13.462;2022-11-20T09:08:33;1.60;99.90
8463;DHT22;4268;52.506;13.462;2022-11-20T09:10:59;1.60;99.90
8463;DHT22;4268;52.506;13.462;2022-11-20T09:13:26;1.60;99.90
8463;DHT22;4268;52.506;13.462;2022-11-20T09:16:07;1.60;99.90
8463;DHT22;4268;52.506;13.462;2022-11-20T09:18:34;1.60;99.90
8463;DHT22;4268;52.506;13.462;2022-11-20T09:21:06;1.60;99.90
8463;DHT22;4268;52.506;13.462;2022-11-20T09:23:33;1.70;99.90
8463;DHT22;4268;52.506;13.462;2022-11-20T09:26:02;1.70;99.90
8463;DHT22;4268;52.506;13.462;2022-11-20T09:28:29;1.60;99.90
8463;DHT22;4268;52.506;13.462;2022-11-20T09:30:55;1.60;99.90
8463;DHT22;4268;52.506;13.462;2022-11-20T09:33:20;1.60;99.90
8463;DHT22;4268;52.506;13.462;2022-11-20T09:35:46;1.60;99.90
8463;DHT22;4268;52.506;13.462;2022-11-20T09:38:11;1.70;99.90
8463;DHT22;4268;52.506;13.462;2022-11-20T09:40:43;1.70;99.90
8463;DHT22;4268;52.506;13.462;2022-11-20T09:43:19;1.70;99.90
8463;DHT22;4268;52.506;13.462;2022-11-20T09:46:04;1.70;99.90
8463;DHT22;4268;52.506;13.462;2022-11-20T09:56:46;1.90;99.90
8463;DHT22;4268;52.506;13.462;2022-11-20T09:59:37;1.90;99.90
8463;DHT22;4268;52.506;13.462;2022-11-20T10:02:17;2.00;99.90
8463;DHT22;4268;52.506;13.462;2022-11-20T10:04:53;2.00;99.90
8463;DHT22;4268;52.506;13.462;2022-11-20T10:09:56;2.10;99.90
8463;DHT22;4268;52.506;13.462;2022-11-20T10:17:59;2.10;99.90
8463;DHT22;4268;52.506;13.462;2022-11-20T10:23:33;2.20;99.90
8463;DHT22;4268;52.506;13.462;2022-11-20T10:26:05;2.30;99.90
8463;DHT22;4268;52.506;13.462;2022-11-20T10:28:54;2.30;99.90
8463;DHT22;4268;52.506;13.462;2022-11-20T10:31:34;2.30;99.90
8463;DHT22;4268;52.506;13.462;2022-11-20T10:34:28;2.30;99.90
8463;DHT22;4268;52.506;13.462;2022-11-20T10:36:56;2.10;99.90
8463;DHT22;4268;52.506;13.462;2022-11-20T10:39:48;2.00;99.90
8463;DHT22;4268;52.506;13.462;2022-11-20T10:42:18;2.10;99.90
8463;DHT22;4268;52.506;13.462;2022-11-20T10:44:51;2.10;99.90
8463;DHT22;4268;52.506;13.462;2022-11-20T10:47:28;2.10;99.90
8463;DHT22;4268;52.506;13.462;2022-11-20T10:49:57;2.20;99.90
8463;DHT22;4268;52.506;13.462;2022-11-20T10:55:48;2.30;99.90
8463;DHT22;4268;52.506;13.462;2022-11-20T11:01:20;2.40;99.90
8463;DHT22;4268;52.506;13.462;2022-11-20T11:03:52;2.40;99.90
8463;DHT22;4268;52.506;13.462;2022-11-20T11:06:32;2.40;99.90
8463;DHT22;4268;52.506;13.462;2022-11-20T11:09:04;2.40;99.90
8463;DHT22;4268;52.506;13.462;2022-11-20T11:11:34;2.50;99.90
8463;DHT22;4268;52.506;13.462;2022-11-20T11:14:06;2.50;99.90
8463;DHT22;4268;52.506;13.462;2022-11-20T11:16:32;2.60;99.90
8463;DHT22;4268;52.506;13.462;2022-11-20T11:19:05;2.70;99.90
8463;DHT22;4268;52.506;13.462;2022-11-20T11:21:30;2.80;99.90
8463;DHT22;4268;52.506;13.462;2022-11-20T11:24:01;2.80;99.90
8463;DHT22;4268;52.506;13.462;2022-11-20T11:26:27;2.90;99.90
8463;DHT22;4268;52.506;13.462;2022-11-20T11:29:01;2.90;99.90
8463;DHT22;4268;52.506;13.462;2022-11-20T11:31:35;3.00;99.90
8463;DHT22;4268;52.506;13.462;2022-11-20T11:34:17;3.10;99.90
8463;DHT22;4268;52.506;13.462;2022-11-20T11:36:55;3.00;99.90
8463;DHT22;4268;52.506;13.462;2022-11-20T11:39:21;3.00;99.90
8463;DHT22;4268;52.506;13.462;2022-11-20T11:41:47;2.90;99.90
8463;DHT22;4268;52.506;13.462;2022-11-20T11:47:30;2.90;99.90
8463;DHT22;4268;52.506;13.462;2022-11-20T11:50:18;3.00;99.90
8463;DHT22;4268;52.506;13.462;2022-11-20T11:53:03;2.90;99.90
8463;DHT22;4268;52.506;13.462;2022-11-20T11:58:44;2.80;99.90
8463;DHT22;4268;52.506;13.462;2022-11-20T12:06:36;2.60;99.90
8463;DHT22;4268;52.506;13.462;2022-11-20T12:09:08;2.60;99.90
8463;DHT22;4268;52.506;13.462;2022-11-20T12:14:19;2.30;99.90
8463;DHT22;4268;52.506;13.462;2022-11-20T12:16:49;2.40;99.90
8463;DHT22;4268;52.506;13.462;2022-11-20T12:19:16;2.40;99.90
8463;DHT22;4268;52.506;13.462;2022-11-20T12:22:18;2.40;99.90
8463;DHT22;4268;52.506;13.462;2022-11-20T12:25:30;2.40;99.90
8463;DHT22;4268;52.506;13.462;2022-11-20T12:27:58;2.40;99.90
8463;DHT22;4268;52.506;13.462;2022-11-20T12:30:27;2.40;99.90
8463;DHT22;4268;52.506;13.462;2022-11-20T12:33:08;2.50;99.90
8463;DHT22;4268;52.506;13.462;2022-11-20T12:41:15;2.50;99.90
8463;DHT22;4268;52.506;13.462;2022-11-20T12:53:05;2.30;99.90
8463;DHT22;4268;52.506;13.462;2022-11-20T12:58:32;2.20;99.90
8463;DHT22;4268;52.506;13.462;2022-11-20T13:01:13;2.10;99.90
8463;DHT22;4268;52.506;13.462;2022-11-20T13:06:40;2.10;99.90
8463;DHT22;4268;52.506;13.462;2022-11-20T13:09:10;2.10;99.90
8463;DHT22;4268;52.506;13.462;2022-11-20T13:11:55;2.00;99.90
8463;DHT22;4268;52.506;13.462;2022-11-20T13:14:37;2.00;99.90
8463;DHT22;4268;52.506;13.462;2022-11-20T13:17:20;2.00;99.90
8463;DHT22;4268;52.506;13.462;2022-11-20T13:19:54;2.00;99.90
8463;DHT22;4268;52.506;13.462;2022-11-20T13:22:29;2.20;99.90
8463;DHT22;4268;52.506;13.462;2022-11-20T13:24:55;2.20;99.90
8463;DHT22;4268;52.506;13.462;2022-11-20T13:27:22;2.30;99.90
8463;DHT22;4268;52.506;13.462;2022-11-20T13:30:24;2.30;99.90
8463;DHT22;4268;52.506;13.462;2022-11-20T13:33:22;2.40;99.90
8463;DHT22;4268;52.506;13.462;2022-11-20T13:38:26;2.40;99.90
8463;DHT22;4268;52.506;13.462;2022-11-20T13:40:54;2.40;99.90
8463;DHT22;4268;52.506;13.462;2022-11-20T13:43:36;2.40;99.90
8463;DHT22;4268;52.506;13.462;2022-11-20T13:46:07;2.30;99.90
8463;DHT22;4268;52.506;13.462;2022-11-20T13:48:39;2.30;99.90
8463;DHT22;4268;52.506;13.462;2022-11-20T13:51:27;2.30;99.90
8463;DHT22;4268;52.506;13.462;2022-11-20T13:59:44;2.40;99.90
8463;DHT22;4268;52.506;13.462;2022-11-20T14:02:16;2.50;99.90
8463;DHT22;4268;52.506;13.462;2022-11-20T14:04:49;2.50;99.90
8463;DHT22;4268;52.506;13.462;2022-11-20T14:07:16;2.40;99.90
8463;DHT22;4268;52.506;13.462;2022-11-20T14:09:54;2.40;99.90
8463;DHT22;4268;52.506;13.462;2022-11-20T14:12:22;2.40;99.90
8463;DHT22;4268;52.506;13.462;2022-11-20T14:14:50;2.30;99.90
8463;DHT22;4268;52.506;13.462;2022-11-20T14:17:22;2.30;99.90
8463;DHT22;4268;52.506;13.462;2022-11-20T14:19:50;2.30;99.90
8463;DHT22;4268;52.506;13.462;2022-11-20T14:22:25;2.30;99.90
8463;DHT22;4268;52.506;13.462;2022-11-20T14:27:38;2.30;99.90
8463;DHT22;4268;52.506;13.462;2022-11-20T14:30:05;2.30;99.90
8463;DHT22;4268;52.506;13.462;2022-11-20T14:32:31;2.30;99.90
8463;DHT22;4268;52.506;13.462;2022-11-20T14:35:06;2.30;99.90
8463;DHT22;4268;52.506;13.462;2022-11-20T14:37:37;2.20;99.90
8463;DHT22;4268;52.506;13.462;2022-11-20T14:40:27;2.20;99.90
8463;DHT22;4268;52.506;13.462;2022-11-20T14:42:52;2.20;99.90
8463;DHT22;4268;52.506;13.462;2022-11-20T14:45:18;2.20;99.90
8463;DHT22;4268;52.506;13.462;2022-11-20T14:47:44;2.20;99.90
8463;DHT22;4268;52.506;13.462;2022-11-20T14:50:19;2.10;99.90
8463;DHT22;4268;52.506;13.462;2022-11-20T14:52:51;2.10;99.90
8463;DHT22;4268;52.506;13.462;2022-11-20T14:58:00;2.00;99.90
8463;DHT22;4268;52.506;13.462;2022-11-20T15:00:26;2.00;99.90
8463;DHT22;4268;52.506;13.462;2022-11-20T15:02:52;2.00;99.90
8463;DHT22;4268;52.506;13.462;2022-11-20T15:05:20;2.00;99.90
8463;DHT22;4268;52.506;13.462;2022-11-20T15:07:49;2.00;99.90
8463;DHT22;4268;52.506;13.462;2022-11-20T15:10:25;1.90;99.90
8463;DHT22;4268;52.506;13.462;2022-11-20T15:13:02;1.90;99.90
8463;DHT22;4268;52.506;13.462;2022-11-20T15:15:48;1.90;99.90
8463;DHT22;4268;52.506;13.462;2022-11-20T15:18:16;1.90;99.90
8463;DHT22;4268;52.506;13.462;2022-11-20T15:20:43;1.90;99.90
8463;DHT22;4268;52.506;13.462;2022-11-20T15:23:11;1.90;99.90
8463;DHT22;4268;52.506;13.462;2022-11-20T15:25:38;1.90;99.90
8463;DHT22;4268;52.506;13.462;2022-11-20T15:28:04;1.90;99.90
8463;DHT22;4268;52.506;13.462;2022-11-20T15:30:38;1.90;99.90
8463;DHT22;4268;52.506;13.462;2022-11-20T15:33:07;1.90;99.90
8463;DHT22;4268;52.506;13.462;2022-11-20T15:35:32;1.90;99.90
8463;DHT22;4268;52.506;13.462;2022-11-20T15:37:58;1.90;99.90
8463;DHT22;4268;52.506;13.462;2022-11-20T15:40:23;1.90;99.90
8463;DHT22;4268;52.506;13.462;2022-11-20T15:42:49;1.90;99.90
8463;DHT22;4268;52.506;13.462;2022-11-20T15:45:41;1.90;99.90
8463;DHT22;4268;52.506;13.462;2022-11-20T15:48:11;1.90;99.90
8463;DHT22;4268;52.506;13.462;2022-11-20T15:50:43;1.90;99.90
8463;DHT22;4268;52.506;13.462;2022-11-20T15:53:09;1.90;99.90
8463;DHT22;4268;52.506;13.462;2022-11-20T15:55:35;1.90;99.90
8463;DHT22;4268;52.506;13.462;2022-11-20T15:58:01;1.90;99.90
8463;DHT22;4268;52.506;13.462;2022-11-20T16:00:26;1.90;99.90
8463;DHT22;4268;52.506;13.462;2022-11-20T16:02:52;1.90;99.90
8463;DHT22;4268;52.506;13.462;2022-11-20T16:05:17;1.90;99.90
8463;DHT22;4268;52.506;13.462;2022-11-20T16:07:43;1.90;99.90
8463;DHT22;4268;52.506;13.462;2022-11-20T16:10:08;1.80;99.90
8463;DHT22;4268;52.506;13.462;2022-11-20T16:12:34;1.70;99.90
8463;DHT22;4268;52.506;13.462;2022-11-20T16:15:18;1.70;99.90
8463;DHT22;4268;52.506;13.462;2022-11-20T16:18:02;1.60;99.90
8463;DHT22;4268;52.506;13.462;2022-11-20T16:20:27;1.50;99.90
8463;DHT22;4268;52.506;13.462;2022-11-20T16:22:54;1.40;99.90
8463;DHT22;4268;52.506;13.462;2022-11-20T16:25:20;1.40;99.90
8463;DHT22;4268;52.506;13.462;2022-11-20T16:27:45;1.30;99.90
8463;DHT22;4268;52.506;13.462;2022-11-20T16:30:11;1.30;99.90
8463;DHT22;4268;52.506;13.462;2022-11-20T16:32:36;0.70;99.90
8463;DHT22;4268;52.506;13.462;2022-11-20T16:35:04;1.10;99.90
8463;DHT22;4268;52.506;13.462;2022-11-20T16:37:29;1.10;99.90
8463;DHT22;4268;52.506;13.462;2022-11-20T16:39:55;1.10;99.90
8463;DHT22;4268;52.506;13.462;2022-11-20T16:42:21;1.10;99.90
8463;DHT22;4268;52.506;13.462;2022-11-20T16:44:47;1.00;99.90
8463;DHT22;4268;52.506;13.462;2022-11-20T16:47:12;1.00;99.90
8463;DHT22;4268;52.506;13.462;2022-11-20T16:49:38;1.00;99.90
8463;DHT22;4268;52.506;13.462;2022-11-20T16:52:03;1.00;99.90
8463;DHT22;4268;52.506;13.462;2022-11-20T16:54:29;1.00;99.90
8463;DHT22;4268;52.506;13.462;2022-11-20T16:56:55;1.00;99.90
8463;DHT22;4268;52.506;13.462;2022-11-20T16:59:20;0.90;99.90
8463;DHT22;4268;52.506;13.462;2022-11-20T17:01:46;0.90;99.90
8463;DHT22;4268;52.506;13.462;2022-11-20T17:04:11;0.90;99.90
8463;DHT22;4268;52.506;13.462;2022-11-20T17:06:40;0.90;99.90
8463;DHT22;4268;52.506;13.462;2022-11-20T17:09:06;1.00;99.90
8463;DHT22;4268;52.506;13.462;2022-11-20T17:11:34;1.10;99.90
8463;DHT22;4268;52.506;13.462;2022-11-20T17:14:00;1.10;99.90
8463;DHT22;4268;52.506;13.462;2022-11-20T17:16:28;1.10;99.90
8463;DHT22;4268;52.506;13.462;2022-11-20T17:18:55;1.10;99.90
8463;DHT22;4268;52.506;13.462;2022-11-20T17:21:21;1.10;99.90
8463;DHT22;4268;52.506;13.462;2022-11-20T17:23:46;1.10;99.90
8463;DHT22;4268;52.506;13.462;2022-11-20T17:26:17;1.00;99.90
8463;DHT22;4268;52.506;13.462;2022-11-20T17:28:44;1.00;99.90
8463;DHT22;4268;52.506;13.462;2022-11-20T17:31:13;1.10;99.90
8463;DHT22;4268;52.506;13.462;2022-11-20T17:33:40;1.10;99.90